createdAt,value
2022-09-23T00:02:11.038Z,7.68
2022-09-23T00:04:41.533Z,6.70
2022-09-23T00:07:10.035Z,7.18
2022-09-23T00:09:38.151Z,6.93
2022-09-23T00:12:08.980Z,7.43
2022-09-23T00:14:38.915Z,7.93
2022-09-23T00:17:07.199Z,6.72
2022-09-23T00:19:35.529Z,7.25
2022-09-23T00:22:05.225Z,8.15
2022-09-23T00:24:33.479Z,6.90
2022-09-23T00:27:01.807Z,6.93
2022-09-23T00:29:30.000Z,6.60
2022-09-23T00:31:59.287Z,6.78
2022-09-23T00:34:27.498Z,6.68
2022-09-23T00:36:55.927Z,7.32
2022-09-23T00:39:26.286Z,7.22
2022-09-23T00:41:55.193Z,7.03
2022-09-23T00:44:47.767Z,7.55
2022-09-23T00:47:20.975Z,7.03
2022-09-23T00:49:54.341Z,6.78
2022-09-23T00:52:25.183Z,6.47
2022-09-23T00:54:58.898Z,7.13
2022-09-23T00:57:28.703Z,7.43
2022-09-23T00:59:57.875Z,7.25
2022-09-23T01:02:28.299Z,7.35
2022-09-23T01:04:56.583Z,7.82
2022-09-23T01:07:24.769Z,7.28
2022-09-23T01:09:54.587Z,7.40
2022-09-23T01:12:48.286Z,7.70
2022-09-23T01:15:20.683Z,7.18
2022-09-23T01:17:55.653Z,7.40
2022-09-23T01:20:47.758Z,7.30
2022-09-23T01:23:42.650Z,7.85
2022-09-23T01:26:32.165Z,7.70
2022-09-23T01:29:23.879Z,7.65
2022-09-23T01:32:00.178Z,8.30
2022-09-23T01:34:36.647Z,7.50
2022-09-23T01:37:12.660Z,8.45
2022-09-23T01:39:45.645Z,7.45
2022-09-23T01:42:18.899Z,7.70
2022-09-23T01:44:53.434Z,7.03
2022-09-23T01:47:27.370Z,8.13
2022-09-23T01:50:01.577Z,7.57
2022-09-23T01:52:36.558Z,6.95
2022-09-23T01:55:09.442Z,7.80
2022-09-23T01:57:42.371Z,9.63
2022-09-23T02:00:14.600Z,10.35
2022-09-23T02:02:50.061Z,9.45
2022-09-23T02:05:23.408Z,8.85
2022-09-23T02:07:59.875Z,7.45
2022-09-23T02:10:33.827Z,7.65
2022-09-23T02:13:07.451Z,10.00
2022-09-23T02:15:41.895Z,8.13
2022-09-23T02:18:16.287Z,8.40
2022-09-23T02:20:44.968Z,8.82
2022-09-23T02:23:15.947Z,8.40
2022-09-23T02:26:02.512Z,7.57
2022-09-23T02:28:37.511Z,8.95
2022-09-23T02:31:11.982Z,8.30
2022-09-23T02:33:47.461Z,8.63
2022-09-23T02:36:26.099Z,8.48
2022-09-23T02:38:59.059Z,7.20
2022-09-23T02:41:32.335Z,7.70
2022-09-23T02:44:07.385Z,8.15
2022-09-23T02:46:36.556Z,9.00
2022-09-23T02:49:12.175Z,8.23
2022-09-23T02:51:41.535Z,7.75
2022-09-23T02:54:12.554Z,8.73
2022-09-23T02:56:41.934Z,7.38
2022-09-23T02:59:10.681Z,7.95
2022-09-23T03:01:48.101Z,7.85
2022-09-23T03:04:31.641Z,8.10
2022-09-23T03:07:06.341Z,7.68
2022-09-23T03:09:41.306Z,8.02
2022-09-23T03:12:17.687Z,8.32
2022-09-23T03:14:54.178Z,7.00
2022-09-23T03:17:28.438Z,8.73
2022-09-23T03:20:02.342Z,7.30
2022-09-23T03:22:34.921Z,8.60
2022-09-23T03:25:08.832Z,8.63
2022-09-23T03:27:39.080Z,7.97
2022-09-23T03:30:09.737Z,8.25
2022-09-23T03:32:39.403Z,7.97
2022-09-23T03:35:09.834Z,8.35
2022-09-23T03:37:45.732Z,7.82
2022-09-23T03:40:18.147Z,8.57
2022-09-23T03:42:48.962Z,7.57
2022-09-23T03:45:21.033Z,7.43
2022-09-23T03:47:49.231Z,7.90
2022-09-23T03:50:19.287Z,7.97
2022-09-23T03:52:47.490Z,7.40
2022-09-23T03:55:17.064Z,7.80
2022-09-23T03:57:45.782Z,10.60
2022-09-23T04:00:15.997Z,8.85
2022-09-23T04:02:44.313Z,8.98
2022-09-23T04:05:13.864Z,9.13
2022-09-23T04:07:43.610Z,9.43
2022-09-23T04:10:12.150Z,8.65
2022-09-23T04:12:40.281Z,7.93
2022-09-23T04:15:09.174Z,7.13
2022-09-23T04:17:37.295Z,9.00
2022-09-23T04:20:06.134Z,8.63
2022-09-23T04:22:34.546Z,9.50
2022-09-23T04:25:04.366Z,9.75
2022-09-23T04:27:37.426Z,9.70
2022-09-23T04:30:07.016Z,8.65
2022-09-23T04:32:35.228Z,9.38
2022-09-23T04:35:03.404Z,9.65
2022-09-23T04:37:31.507Z,9.82
2022-09-23T04:39:59.698Z,8.40
2022-09-23T04:42:31.190Z,9.52
2022-09-23T04:44:59.365Z,10.60
2022-09-23T04:47:28.395Z,9.07
2022-09-23T04:49:59.747Z,10.07
2022-09-23T04:52:28.552Z,10.20
2022-09-23T04:54:56.647Z,8.52
2022-09-23T04:57:24.818Z,10.15
2022-09-23T04:59:54.920Z,10.32
2022-09-23T05:02:23.074Z,8.68
2022-09-23T05:04:51.218Z,9.85
2022-09-23T05:07:19.506Z,9.05
2022-09-23T05:09:47.657Z,9.63
2022-09-23T05:12:15.926Z,8.63
2022-09-23T05:14:44.129Z,8.48
2022-09-23T05:17:13.632Z,8.93
2022-09-23T05:19:42.520Z,9.02
2022-09-23T05:22:10.692Z,8.60
2022-09-23T05:24:38.829Z,9.05
2022-09-23T05:27:07.540Z,9.70
2022-09-23T05:29:36.126Z,10.30
2022-09-23T05:32:04.377Z,9.85
2022-09-23T05:34:33.924Z,8.73
2022-09-23T05:37:02.023Z,8.45
2022-09-23T05:39:30.414Z,9.68
2022-09-23T05:42:00.098Z,9.85
2022-09-23T05:44:28.255Z,10.68
2022-09-23T05:46:56.558Z,10.85
2022-09-23T05:49:42.569Z,10.75
2022-09-23T05:52:14.437Z,10.60
2022-09-23T05:54:42.495Z,10.05
2022-09-23T05:57:10.595Z,10.18
2022-09-23T05:59:39.155Z,10.20
2022-09-23T06:02:07.604Z,9.80
2022-09-23T06:04:35.798Z,8.50
2022-09-23T06:07:03.985Z,9.20
2022-09-23T06:09:36.484Z,8.23
2022-09-23T06:12:06.373Z,8.48
2022-09-23T06:14:34.643Z,7.85
2022-09-23T06:17:02.788Z,8.38
2022-09-23T06:19:30.923Z,8.10
2022-09-23T06:21:59.312Z,7.28
2022-09-23T06:24:31.234Z,7.05
2022-09-23T06:27:01.356Z,7.68
2022-09-23T06:29:32.363Z,8.25
2022-09-23T06:32:00.764Z,8.27
2022-09-23T06:34:29.228Z,7.95
2022-09-23T06:36:58.591Z,8.60
2022-09-23T06:39:27.414Z,6.90
2022-09-23T06:41:55.710Z,8.05
2022-09-23T06:44:29.769Z,8.23
2022-09-23T06:46:58.067Z,7.63
2022-09-23T06:49:26.675Z,7.65
2022-09-23T06:51:56.301Z,7.30
2022-09-23T06:54:24.451Z,6.18
2022-09-23T06:56:52.574Z,9.30
2022-09-23T06:59:20.759Z,8.63
2022-09-23T07:01:50.761Z,7.03
2022-09-23T07:04:18.985Z,8.07
2022-09-23T07:06:47.078Z,8.27
2022-09-23T07:09:15.223Z,6.90
2022-09-23T07:11:43.330Z,7.43
2022-09-23T07:14:11.435Z,7.13
2022-09-23T07:16:39.554Z,7.38
2022-09-23T07:19:09.035Z,6.55
2022-09-23T07:21:37.730Z,6.65
2022-09-23T07:24:06.295Z,5.82
2022-09-23T07:26:34.867Z,5.72
2022-09-23T07:29:05.099Z,7.13
2022-09-23T07:31:39.293Z,6.13
2022-09-23T07:34:11.672Z,5.95
2022-09-23T07:36:41.679Z,6.18
2022-09-23T07:39:11.343Z,6.15
2022-09-23T07:41:39.791Z,6.60
2022-09-23T07:44:08.878Z,6.50
2022-09-23T07:46:37.498Z,6.03
2022-09-23T07:49:06.578Z,6.60
2022-09-23T07:51:38.244Z,6.00
2022-09-23T07:54:08.914Z,6.13
2022-09-23T07:56:38.797Z,7.30
2022-09-23T07:59:09.037Z,6.93
2022-09-23T08:01:39.459Z,6.30
2022-09-23T08:04:11.443Z,6.40
2022-09-23T08:06:43.535Z,6.50
2022-09-23T08:09:12.754Z,6.27
2022-09-23T08:11:42.242Z,5.00
2022-09-23T08:14:11.145Z,6.10
2022-09-23T08:16:39.842Z,6.50
2022-09-23T08:19:08.325Z,5.57
2022-09-23T08:21:37.638Z,5.77
2022-09-23T08:24:07.412Z,6.10
2022-09-23T08:26:36.525Z,5.40
2022-09-23T08:29:05.283Z,5.47
2022-09-23T08:31:33.956Z,5.37
2022-09-23T08:34:02.362Z,6.27
2022-09-23T08:36:30.627Z,5.80
2022-09-23T08:38:58.851Z,4.53
2022-09-23T08:41:35.329Z,4.80
2022-09-23T08:44:05.932Z,4.77
2022-09-23T08:46:38.998Z,4.50
2022-09-23T08:49:08.280Z,4.30
2022-09-23T08:51:42.512Z,4.40
2022-09-23T08:54:12.070Z,4.80
2022-09-23T08:56:45.823Z,4.63
2022-09-23T08:59:19.301Z,4.87
2022-09-23T09:01:51.114Z,5.27
2022-09-23T09:04:23.906Z,5.50
2022-09-23T09:07:12.398Z,4.53
2022-09-23T09:09:48.934Z,4.10
2022-09-23T09:12:20.483Z,3.97
2022-09-23T09:14:55.368Z,4.13
2022-09-23T09:17:35.203Z,3.57
2022-09-23T09:20:19.411Z,3.37
2022-09-23T09:22:55.971Z,3.53
2022-09-23T09:25:39.426Z,3.80
2022-09-23T09:28:16.966Z,3.63
2022-09-23T09:30:48.472Z,4.10
2022-09-23T09:33:20.286Z,3.63
2022-09-23T09:36:01.505Z,3.33
2022-09-23T09:38:29.707Z,3.67
2022-09-23T09:41:03.279Z,2.70
2022-09-23T09:43:32.822Z,5.00
2022-09-23T09:46:14.667Z,3.30
2022-09-23T09:48:53.769Z,3.67
2022-09-23T09:51:23.847Z,3.60
2022-09-23T09:53:53.081Z,5.30
2022-09-23T09:56:27.291Z,3.57
2022-09-23T09:59:01.222Z,3.57
2022-09-23T10:01:32.530Z,2.63
2022-09-23T10:04:04.744Z,2.30
2022-09-23T10:06:35.717Z,2.47
2022-09-23T10:09:12.106Z,2.60
2022-09-23T10:11:41.524Z,2.07
2022-09-23T10:14:18.654Z,3.07
2022-09-23T10:16:48.929Z,3.83
2022-09-23T10:19:27.042Z,3.53
2022-09-23T10:21:59.922Z,2.67
2022-09-23T10:24:32.219Z,2.80
2022-09-23T10:27:03.142Z,2.97
2022-09-23T10:29:34.829Z,2.10
2022-09-23T10:32:33.808Z,2.97
2022-09-23T10:35:15.760Z,2.80
2022-09-23T10:37:48.424Z,2.80
2022-09-23T10:40:37.979Z,2.70
2022-09-23T10:43:42.630Z,2.70
2022-09-23T10:46:36.235Z,2.70
2022-09-23T10:49:38.801Z,2.40
2022-09-23T10:52:22.483Z,2.93
2022-09-23T10:55:03.997Z,2.20
2022-09-23T10:57:43.687Z,1.80
2022-09-23T11:00:23.532Z,2.00
2022-09-23T11:03:27.162Z,2.73
2022-09-23T11:06:14.133Z,2.03
2022-09-23T11:09:01.318Z,1.97
2022-09-23T11:11:39.708Z,2.00
2022-09-23T11:14:30.173Z,2.27
2022-09-23T11:17:27.120Z,2.03
2022-09-23T11:20:18.710Z,2.10
2022-09-23T11:23:07.178Z,1.93
2022-09-23T11:25:48.342Z,2.10
2022-09-23T11:28:40.304Z,1.87
2022-09-23T11:31:22.571Z,1.93
2022-09-23T11:34:05.402Z,2.10
2022-09-23T11:36:40.958Z,1.47
2022-09-23T11:39:16.011Z,2.40
2022-09-23T11:41:45.763Z,1.80
2022-09-23T11:44:19.951Z,2.00
2022-09-23T11:46:51.223Z,2.30
2022-09-23T11:49:27.807Z,1.97
2022-09-23T11:52:08.160Z,2.20
2022-09-23T11:54:44.958Z,2.10
2022-09-23T11:57:34.296Z,1.90
2022-09-23T12:00:15.832Z,1.33
2022-09-23T12:03:06.561Z,1.90
2022-09-23T12:05:39.379Z,2.13
2022-09-23T12:08:19.047Z,1.97
2022-09-23T12:10:55.613Z,2.13
2022-09-23T12:13:31.635Z,2.27
2022-09-23T12:16:27.906Z,2.40
2022-09-23T12:19:05.654Z,2.10
2022-09-23T12:21:58.088Z,2.30
2022-09-23T12:24:55.684Z,2.20
2022-09-23T12:27:31.938Z,2.17
2022-09-23T12:30:03.431Z,2.13
2022-09-23T12:32:32.607Z,2.57
2022-09-23T12:35:02.766Z,2.40
2022-09-23T12:37:35.644Z,2.40
2022-09-23T12:40:10.886Z,2.60
2022-09-23T12:42:45.970Z,2.63
2022-09-23T12:45:38.639Z,2.10
2022-09-23T12:48:28.604Z,1.80
2022-09-23T12:51:07.732Z,2.13
2022-09-23T12:53:54.150Z,2.00
2022-09-23T12:56:29.886Z,1.90
2022-09-23T12:59:25.231Z,3.00
2022-09-23T13:01:54.206Z,2.87
2022-09-23T13:04:47.595Z,2.47
2022-09-23T13:07:18.794Z,2.30
2022-09-23T13:09:50.672Z,2.30
2022-09-23T13:12:26.551Z,2.10
2022-09-23T13:14:58.089Z,3.40
2022-09-23T13:17:33.056Z,2.10
2022-09-23T13:20:26.434Z,2.50
2022-09-23T13:23:21.471Z,2.20
2022-09-23T13:25:51.530Z,2.10
2022-09-23T13:28:32.811Z,2.23
2022-09-23T13:31:05.314Z,3.00
2022-09-23T13:33:42.446Z,2.17
2022-09-23T13:36:14.041Z,2.33
2022-09-23T13:38:42.707Z,2.13
2022-09-23T13:41:15.055Z,2.57
2022-09-23T13:43:48.998Z,2.37
2022-09-23T13:46:19.490Z,2.20
2022-09-23T13:48:51.756Z,2.07
2022-09-23T13:51:24.616Z,2.30
2022-09-23T13:53:55.407Z,2.07
2022-09-23T13:56:24.940Z,2.80
2022-09-23T13:58:55.892Z,2.77
2022-09-23T14:01:30.554Z,2.40
2022-09-23T14:03:59.203Z,2.20
2022-09-23T14:06:28.263Z,2.00
2022-09-23T14:08:57.130Z,1.97
2022-09-23T14:11:31.736Z,2.20
2022-09-23T14:14:05.997Z,2.57
2022-09-23T14:16:39.436Z,2.13
2022-09-23T14:19:08.056Z,1.90
2022-09-23T14:21:38.336Z,2.27
2022-09-23T14:24:16.070Z,2.10
2022-09-23T14:26:47.414Z,2.33
2022-09-23T14:29:19.907Z,2.60
2022-09-23T14:31:56.925Z,2.93
2022-09-23T14:34:51.235Z,2.50
2022-09-23T14:37:44.407Z,3.20
2022-09-23T14:40:16.659Z,2.90
2022-09-23T14:42:47.711Z,2.40
2022-09-23T14:45:22.747Z,2.70
2022-09-23T14:47:53.318Z,1.93
2022-09-23T14:50:39.908Z,2.20
2022-09-23T14:53:36.495Z,2.63
2022-09-23T14:56:19.907Z,2.00
2022-09-23T14:58:52.964Z,2.57
2022-09-23T15:01:40.446Z,2.60
2022-09-23T15:04:30.503Z,2.37
2022-09-23T15:07:02.065Z,2.90
2022-09-23T15:09:33.781Z,2.67
2022-09-23T15:12:05.616Z,2.20
2022-09-23T15:14:40.838Z,2.80
2022-09-23T15:17:26.332Z,3.13
2022-09-23T15:19:57.156Z,3.60
2022-09-23T15:22:26.223Z,3.93
2022-09-23T15:24:55.800Z,3.50
2022-09-23T15:27:32.238Z,3.97
2022-09-23T15:30:15.445Z,3.50
2022-09-23T15:32:45.394Z,3.23
2022-09-23T15:35:15.799Z,3.50
2022-09-23T15:37:44.473Z,3.30
2022-09-23T15:40:20.984Z,3.30
2022-09-23T15:42:51.604Z,3.23
2022-09-23T15:45:22.202Z,3.60
2022-09-23T15:47:52.344Z,3.93
2022-09-23T15:50:21.032Z,3.60
2022-09-23T15:52:49.153Z,3.50
2022-09-23T15:55:19.121Z,4.10
2022-09-23T15:57:48.120Z,3.20
2022-09-23T16:00:17.230Z,3.67
2022-09-23T16:02:48.010Z,3.90
2022-09-23T16:05:26.621Z,3.60
2022-09-23T16:07:54.786Z,3.80
2022-09-23T16:10:23.966Z,4.37
2022-09-23T16:12:54.687Z,3.77
2022-09-23T16:15:24.800Z,3.60
2022-09-23T16:17:53.107Z,4.20
2022-09-23T16:20:22.931Z,4.10
2022-09-23T16:22:54.757Z,4.30
2022-09-23T16:25:28.319Z,4.50
2022-09-23T16:27:58.428Z,4.53
2022-09-23T16:30:28.302Z,4.13
2022-09-23T16:32:57.037Z,4.57
2022-09-23T16:35:28.852Z,4.90
2022-09-23T16:37:57.277Z,4.87
2022-09-23T16:40:26.015Z,3.70
2022-09-23T16:42:55.061Z,4.23
2022-09-23T16:45:23.676Z,4.10
2022-09-23T16:47:54.325Z,4.20
2022-09-23T16:50:24.272Z,4.50
2022-09-23T16:52:56.201Z,3.57
2022-09-23T16:55:26.483Z,3.73
2022-09-23T16:57:55.660Z,4.97
2022-09-23T17:00:42.291Z,5.33
2022-09-23T17:03:30.908Z,8.33
2022-09-23T17:06:00.706Z,8.93
2022-09-23T17:08:32.146Z,7.50
2022-09-23T17:11:01.749Z,7.60
2022-09-23T17:13:30.966Z,8.93
2022-09-23T17:15:59.670Z,6.97
2022-09-23T17:18:28.706Z,8.00
2022-09-23T17:21:01.424Z,7.03
2022-09-23T17:23:31.842Z,5.65
2022-09-23T17:26:00.290Z,6.63
2022-09-23T17:28:29.100Z,6.97
2022-09-23T17:30:59.071Z,8.02
2022-09-23T17:33:27.754Z,8.05
2022-09-23T17:35:57.077Z,9.00
2022-09-23T17:38:28.928Z,13.30
2022-09-23T17:41:02.077Z,15.23
2022-09-23T17:43:31.646Z,16.45
2022-09-23T17:46:05.299Z,12.20
2022-09-23T17:48:35.191Z,12.32
2022-09-23T17:51:05.783Z,13.32
2022-09-23T17:53:35.082Z,11.85
2022-09-23T17:56:07.121Z,16.15
2022-09-23T17:58:37.218Z,14.38
2022-09-23T18:01:06.188Z,26.00
2022-09-23T18:03:34.340Z,14.05
2022-09-23T18:06:10.293Z,13.30
2022-09-23T18:08:38.827Z,13.15
2022-09-23T18:11:19.613Z,15.27
2022-09-23T18:13:53.218Z,13.93
2022-09-23T18:16:23.667Z,9.73
2022-09-23T18:18:53.026Z,12.20
2022-09-23T18:21:21.762Z,13.98
2022-09-23T18:23:50.505Z,11.82
2022-09-23T18:26:21.355Z,12.95
2022-09-23T18:28:50.347Z,11.95
2022-09-23T18:31:18.559Z,11.93
2022-09-23T18:33:50.466Z,9.38
2022-09-23T18:36:18.638Z,11.68
2022-09-23T18:38:46.985Z,11.43
2022-09-23T18:41:15.956Z,12.05
2022-09-23T18:43:48.476Z,11.02
2022-09-23T18:46:18.768Z,14.45
2022-09-23T18:49:04.935Z,14.98
2022-09-23T18:51:34.917Z,15.32
2022-09-23T18:54:05.331Z,14.57
2022-09-23T18:56:37.292Z,15.70
2022-09-23T18:59:08.555Z,14.48
2022-09-23T19:01:37.096Z,17.00
2022-09-23T19:04:06.673Z,10.80
2022-09-23T19:06:35.966Z,13.13
2022-09-23T19:09:05.842Z,15.82
2022-09-23T19:11:36.140Z,16.67
2022-09-23T19:14:07.144Z,22.27
2022-09-23T19:16:35.879Z,21.58
2022-09-23T19:19:05.305Z,20.15
2022-09-23T19:21:33.905Z,19.80
2022-09-23T19:24:04.373Z,22.98
2022-09-23T19:26:34.678Z,24.95
2022-09-23T19:29:04.350Z,24.02
2022-09-23T19:31:35.676Z,23.15
2022-09-23T19:34:10.065Z,22.90
2022-09-23T19:36:40.034Z,25.63
2022-09-23T19:39:12.475Z,25.73
2022-09-23T19:41:40.607Z,31.55
2022-09-23T19:44:08.961Z,28.88
2022-09-23T19:46:40.736Z,23.38
2022-09-23T19:49:09.308Z,24.90
2022-09-23T19:51:37.909Z,26.27
2022-09-23T19:54:08.045Z,24.33
2022-09-23T19:56:36.512Z,25.42
2022-09-23T19:59:07.166Z,26.40
2022-09-23T20:01:36.023Z,28.75
2022-09-23T20:04:05.821Z,28.77
2022-09-23T20:06:35.944Z,30.30
2022-09-23T20:09:04.118Z,29.20
2022-09-23T20:11:32.527Z,27.20
2022-09-23T20:14:04.325Z,29.67
2022-09-23T20:16:34.075Z,26.45
2022-09-23T20:19:04.163Z,25.38
2022-09-23T20:21:35.371Z,22.10
2022-09-23T20:24:06.486Z,21.70
2022-09-23T20:26:51.906Z,21.67
2022-09-23T20:29:20.063Z,20.80
2022-09-23T20:31:48.350Z,24.45
2022-09-23T20:34:16.532Z,22.17
2022-09-23T20:36:45.999Z,18.30
2022-09-23T20:39:14.195Z,11.90
2022-09-23T20:41:42.614Z,11.80
2022-09-23T20:44:13.088Z,11.18
2022-09-23T20:46:46.925Z,10.18
2022-09-23T20:49:16.917Z,9.52
2022-09-23T20:51:47.930Z,8.70
2022-09-23T20:54:16.478Z,9.25
2022-09-23T20:56:44.875Z,8.90
2022-09-23T20:59:14.865Z,10.40
2022-09-23T21:01:43.406Z,8.73
2022-09-23T21:04:11.618Z,9.77
2022-09-23T21:06:40.002Z,8.95
2022-09-23T21:09:09.489Z,10.98
2022-09-23T21:11:38.176Z,10.43
2022-09-23T21:14:06.465Z,9.93
2022-09-23T21:16:34.650Z,9.80
2022-09-23T21:19:03.879Z,10.15
2022-09-23T21:21:32.029Z,10.45
2022-09-23T21:24:17.305Z,12.85
2022-09-23T21:26:50.527Z,18.48
2022-09-23T21:29:19.267Z,23.73
2022-09-23T21:31:49.684Z,22.10
2022-09-23T21:34:17.997Z,23.88
2022-09-23T21:36:48.531Z,23.23
2022-09-23T21:39:16.655Z,19.90
2022-09-23T21:41:44.740Z,22.90
2022-09-23T21:44:14.414Z,23.95
2022-09-23T21:46:42.614Z,18.38
2022-09-23T21:49:10.847Z,15.48
2022-09-23T21:51:41.546Z,12.75
2022-09-23T21:54:14.031Z,11.10
2022-09-23T21:56:42.877Z,9.25
2022-09-23T21:59:11.091Z,10.07
2022-09-23T22:01:44.386Z,9.27
2022-09-23T22:04:16.326Z,8.60
2022-09-23T22:06:44.966Z,8.20
2022-09-23T22:09:14.935Z,8.73
2022-09-23T22:12:00.417Z,7.95
2022-09-23T22:14:30.483Z,7.10
2022-09-23T22:17:02.608Z,7.53
2022-09-23T22:19:35.334Z,7.40
2022-09-23T22:22:07.332Z,7.68
2022-09-23T22:24:35.574Z,7.38
2022-09-23T22:27:03.666Z,6.93
2022-09-23T22:29:49.074Z,8.00
2022-09-23T22:32:36.135Z,8.05
2022-09-23T22:35:05.150Z,7.80
2022-09-23T22:37:35.560Z,7.45
2022-09-23T22:40:04.394Z,7.00
2022-09-23T22:42:32.573Z,7.03
2022-09-23T22:45:00.679Z,7.03
2022-09-23T22:47:30.155Z,7.57
2022-09-23T22:49:58.280Z,6.82
2022-09-23T22:52:26.362Z,6.60
2022-09-23T22:54:54.489Z,7.30
2022-09-23T22:57:22.573Z,7.05
2022-09-23T22:59:50.684Z,6.30
2022-09-23T23:02:21.464Z,6.60
2022-09-23T23:04:51.583Z,6.97
2022-09-23T23:07:21.584Z,7.45
2022-09-23T23:09:50.986Z,6.50
2022-09-23T23:12:20.373Z,7.20
2022-09-23T23:14:49.538Z,6.68
2022-09-23T23:17:18.878Z,5.97
2022-09-23T23:19:47.495Z,6.82
2022-09-23T23:22:17.011Z,7.22
2022-09-23T23:24:45.148Z,6.70
2022-09-23T23:27:13.337Z,6.05
2022-09-23T23:29:41.447Z,6.30
2022-09-23T23:32:09.841Z,6.32
2022-09-23T23:34:37.991Z,7.57
2022-09-23T23:37:06.274Z,6.13
2022-09-23T23:39:35.778Z,6.88
2022-09-23T23:42:04.839Z,7.60
2022-09-23T23:44:34.471Z,8.07
2022-09-23T23:47:02.953Z,7.30
2022-09-23T23:49:31.259Z,7.03
2022-09-23T23:51:59.401Z,7.35
2022-09-23T23:54:27.526Z,8.05
2022-09-23T23:56:57.003Z,6.82
2022-09-23T23:59:25.946Z,8.00
